ADDS METAR Data INFO
IDs: Format: Raw Decoded Include TAF

Data at: 2253 UTC 22 Jun 2018

KXVG 222215Z AUTO 00000KT 10SM SCT065 26/16 A2983 RMK AO2
KXVG 222157Z AUTO 16004KT 10SM CLR 28/14 A2983 RMK AO2
KXVG 222133Z AUTO 00000KT 10SM CLR 28/14 A2984 RMK AO2
KXVG 222117Z AUTO 00000KT 10SM CLR 28/14 A2985 RMK AO2
KXVG 222053Z AUTO 24003KT 10SM SCT055 28/14 A2986 RMK AO2
KXVG 222033Z AUTO 19004KT 10SM OVC055 28/15 A2987 RMK AO2
KXVG 222013Z AUTO 24003KT 10SM SCT055 27/15 A2987 RMK AO2
KXVG 221954Z AUTO 00000KT 10SM CLR 27/14 A2987 RMK AO2
KXVG 221934Z AUTO 00000KT 10SM CLR 27/14 A2988 RMK AO2
KXVG 221916Z AUTO 18003KT 10SM CLR 27/14 A2989 RMK AO2
KXVG 221855Z AUTO 15005KT 10SM CLR 27/14 A2989 RMK AO2
KXVG 221833Z AUTO 00000KT 10SM CLR 27/14 A2988 RMK AO2
KXVG 221816Z AUTO 00000KT 10SM CLR 26/14 A2989 RMK AO2
KXVG 221753Z AUTO 00000KT 10SM CLR 26/14 A2990 RMK AO2
KXVG 221735Z AUTO 00000KT 10SM CLR 26/14 A2990 RMK AO2
KXVG 221718Z AUTO 00000KT 10SM CLR 25/15 A2990 RMK AO2
KXVG 221653Z AUTO 00000KT 10SM CLR 24/15 A2991 RMK AO2
KXVG 221635Z AUTO 00000KT 10SM CLR 24/15 A2991 RMK AO2
KXVG 221616Z AUTO 00000KT 10SM CLR 24/14 A2991 RMK AO2
KXVG 221557Z AUTO 00000KT 10SM CLR 23/13 A2991 RMK AO2
KXVG 221533Z AUTO 00000KT 10SM CLR 23/14 A2992 RMK AO2
KXVG 221515Z AUTO 00000KT 10SM CLR 22/14 A2992 RMK AO2
KXVG 221455Z AUTO 00000KT 10SM CLR 22/14 A2992 RMK AO2
KXVG 221433Z AUTO 00000KT 10SM CLR 22/14 A2993 RMK AO2
KXVG 221413Z AUTO 00000KT 10SM CLR 21/14 A2993 RMK AO2
KXVG 221355Z AUTO 00000KT 10SM CLR 20/14 A2994 RMK AO2
KXVG 221335Z AUTO 00000KT 10SM CLR 19/14 A2994 RMK AO2
KXVG 221315Z AUTO 00000KT 10SM CLR 18/14 A2994 RMK AO2
KXVG 221253Z AUTO 00000KT 10SM CLR 17/15 A2994 RMK AO2
KXVG 221235Z AUTO 00000KT 10SM CLR 15/14 A2994 RMK AO2
KXVG 221213Z AUTO 00000KT 10SM CLR 14/14 A2994 RMK AO2
KXVG 221154Z AUTO 00000KT 10SM CLR 14/13 A2994 RMK AO2
KXVG 221134Z AUTO 00000KT 10SM CLR 13/12 A2994 RMK AO2
KXVG 221115Z AUTO 00000KT 10SM CLR 12/12 A2994 RMK AO2
KXVG 221053Z AUTO 00000KT 10SM CLR 12/11 A2994 RMK AO2
KXVG 221035Z AUTO 00000KT 10SM CLR 11/11 A2994 RMK AO2
KXVG 221015Z AUTO 00000KT 10SM CLR 11/11 A2994 RMK AO2
KXVG 220953Z AUTO 00000KT 10SM CLR 12/11 A2994 RMK AO2
KXVG 220936Z AUTO 00000KT 10SM CLR 11/11 A2994 RMK AO2
KXVG 220916Z AUTO 00000KT 10SM CLR 12/11 A2994 RMK AO2
KXVG 220857Z AUTO 00000KT 10SM CLR 12/11 A2994 RMK AO2
KXVG 220835Z AUTO 00000KT 10SM CLR 12/11 A2994 RMK AO2
KXVG 220814Z AUTO 00000KT 10SM CLR 12/11 A2994 RMK AO2
KXVG 220754Z AUTO 00000KT 10SM CLR 12/12 A2994 RMK AO2
KXVG 220733Z AUTO 00000KT 10SM CLR 13/12 A2993 RMK AO2
KXVG 220715Z AUTO 00000KT 10SM CLR 13/12 A2993 RMK AO2
KXVG 220655Z AUTO 00000KT 10SM CLR 13/13 A2993 RMK AO2
KXVG 220635Z AUTO 00000KT 10SM CLR 13/13 A2994 RMK AO2
KXVG 220614Z AUTO 00000KT 10SM CLR 14/13 A2994 RMK AO2
KXVG 220555Z AUTO 00000KT 10SM CLR 14/13 A2994 RMK AO2
KXVG 220536Z AUTO 00000KT 10SM CLR 14/13 A2994 RMK AO2
KXVG 220515Z AUTO 00000KT 10SM CLR 14/14 A2994 RMK AO2
KXVG 220453Z AUTO 00000KT 10SM CLR 15/14 A2994 RMK AO2
KXVG 220435Z AUTO 00000KT 10SM CLR 16/15 A2995 RMK AO2
KXVG 220413Z AUTO 00000KT 10SM CLR 16/15 A2995 RMK AO2
KXVG 220354Z AUTO 00000KT 10SM CLR 17/16 A2995 RMK AO2
KXVG 220336Z AUTO 00000KT 10SM CLR 17/16 A2995 RMK AO2
KXVG 220316Z AUTO 19003KT 10SM CLR 17/16 A2995 RMK AO2
KXVG 220255Z AUTO 00000KT 10SM CLR 17/16 A2994 RMK AO2
KXVG 220233Z AUTO 00000KT 10SM CLR 18/17 A2994 RMK AO2
KXVG 220216Z AUTO 00000KT 10SM CLR 19/17 A2993 RMK AO2
KXVG 220115Z AUTO 00000KT 10SM CLR 23/17 A2993 RMK AO2
KXVG 220058Z AUTO 18005KT 10SM CLR 23/17 A2993 RMK AO2
KXVG 220033Z AUTO 00000KT 10SM CLR 23/18 A2992 RMK AO2
KXVG 220015Z AUTO 00000KT 10SM SCT055 24/18 A2992 RMK AO2
KXVG 212353Z AUTO 00000KT 10SM SCT055 25/16 A2992 RMK AO2
KXVG 212335Z AUTO 00000KT 10SM CLR 26/14 A2993 RMK AO2
KXVG 212313Z AUTO 00000KT 10SM SCT055 27/16 A2993 RMK AO2
KXVG 212255Z AUTO 00000KT 10SM SCT055 27/15 A2993 RMK AO2
KXVG 212235Z AUTO 00000KT 10SM SCT055 26/14 A2993 RMK AO2
KXVG 212214Z AUTO 02003KT 10SM SCT055 27/13 A2993 RMK AO2
KXVG 212157Z AUTO 02003KT 10SM CLR 27/14 A2993 RMK AO2
KXVG 212133Z AUTO 35005KT 10SM CLR 27/14 A2993 RMK AO2
KXVG 212115Z AUTO 34003KT 10SM SCT055 27/14 A2994 RMK AO2
KXVG 212055Z AUTO 00000KT 10SM SCT055 27/14 A2994 RMK AO2
KXVG 212035Z AUTO 00000KT 10SM SCT055 27/13 A2994 RMK AO2
KXVG 212017Z AUTO 34003KT 10SM CLR 27/14 A2994 RMK AO2
KXVG 211956Z AUTO 05004KT 10SM CLR 27/13 A2994 RMK AO2
KXVG 211937Z AUTO 00000KT 10SM CLR 26/13 A2995 RMK AO2
KXVG 211814Z AUTO 00000KT 10SM CLR 26/13 A2996 RMK AO2
KXVG 211754Z AUTO 00000KT 10SM CLR 25/14 A2996 RMK AO2
KXVG 211735Z AUTO 00000KT 10SM CLR 25/14 A2996 RMK AO2
KXVG 211713Z AUTO 12003KT 1SM CLR 24/14 A2996 RMK AO2
KXVG 211637Z AUTO 15005KT 10SM CLR 24/13 A2997 RMK AO2
KXVG 211616Z AUTO 00000KT 10SM CLR 23/13 A2997 RMK AO2
KXVG 211554Z AUTO 13003KT 10SM CLR 23/13 A2997 RMK AO2
KXVG 211536Z AUTO 00000KT 10SM SCT075 22/14 A2997 RMK AO2
KXVG 211513Z AUTO 15003KT 10SM BKN075 22/13 A2997 RMK AO2
KXVG 211456Z AUTO 00000KT 10SM CLR 21/13 A2997 RMK AO2
KXVG 211435Z AUTO 08004KT 10SM CLR 20/13 A2997 RMK AO2
KXVG 211413Z AUTO 10003KT 10SM CLR 19/13 A2997 RMK AO2
KXVG 211355Z AUTO 14003KT 10SM CLR 18/13 A2997 RMK AO2
KXVG 211334Z AUTO 00000KT 10SM CLR 18/13 A2997 RMK AO2
KXVG 211313Z AUTO 12003KT 10SM CLR 17/13 A2997 RMK AO2
KXVG 211254Z AUTO 00000KT 10SM CLR 16/13 A2996 RMK AO2
KXVG 211235Z AUTO 00000KT 10SM CLR 15/13 A2996 RMK AO2
KXVG 211215Z AUTO 00000KT 10SM CLR 14/13 A2996 RMK AO2
KXVG 211153Z AUTO 00000KT 10SM CLR 13/12 A2995 RMK AO2
KXVG 211135Z AUTO 00000KT 10SM CLR 12/12 A2995 RMK AO2
KXVG 211113Z AUTO 00000KT 7SM CLR 12/11 A2994 RMK AO2
KXVG 211057Z AUTO 00000KT 10SM CLR 12/11 A2994 RMK AO2